sensor_id;sensor_type;location;lat;lon;timestamp;P1;durP1;ratioP1;P2;durP2;ratioP2
66860;SDS011;53770;42.334;23.550;2022-09-09T00:01:10;13.95;;;9.57;;
66860;SDS011;53770;42.334;23.550;2022-09-09T00:03:47;13.82;;;9.15;;
66860;SDS011;53770;42.334;23.550;2022-09-09T00:06:21;8.77;;;6.32;;
66860;SDS011;53770;42.334;23.550;2022-09-09T00:08:57;10.65;;;5.30;;
66860;SDS011;53770;42.334;23.550;2022-09-09T00:11:29;14.20;;;5.57;;
66860;SDS011;53770;42.334;23.550;2022-09-09T00:14:07;8.95;;;5.47;;
66860;SDS011;53770;42.334;23.550;2022-09-09T00:16:42;11.68;;;5.00;;
66860;SDS011;53770;42.334;23.550;2022-09-09T00:19:15;8.98;;;4.65;;
66860;SDS011;53770;42.334;23.550;2022-09-09T00:21:50;15.02;;;5.55;;
66860;SDS011;53770;42.334;23.550;2022-09-09T00:24:24;12.73;;;5.80;;
66860;SDS011;53770;42.334;23.550;2022-09-09T00:26:56;10.95;;;5.75;;
66860;SDS011;53770;42.334;23.550;2022-09-09T00:29:31;8.50;;;4.72;;
66860;SDS011;53770;42.334;23.550;2022-09-09T00:32:07;13.57;;;5.80;;
66860;SDS011;53770;42.334;23.550;2022-09-09T00:34:46;13.75;;;5.03;;
66860;SDS011;53770;42.334;23.550;2022-09-09T00:37:14;13.20;;;6.87;;
66860;SDS011;53770;42.334;23.550;2022-09-09T00:39:42;13.68;;;6.90;;
66860;SDS011;53770;42.334;23.550;2022-09-09T00:42:13;10.63;;;6.07;;
66860;SDS011;53770;42.334;23.550;2022-09-09T00:44:49;12.23;;;5.70;;
66860;SDS011;53770;42.334;23.550;2022-09-09T00:50:13;13.17;;;4.77;;
66860;SDS011;53770;42.334;23.550;2022-09-09T00:53:06;11.27;;;5.25;;
66860;SDS011;53770;42.334;23.550;2022-09-09T00:55:45;13.93;;;5.53;;
66860;SDS011;53770;42.334;23.550;2022-09-09T00:58:16;14.23;;;4.68;;
66860;SDS011;53770;42.334;23.550;2022-09-09T01:00:44;13.30;;;4.40;;
66860;SDS011;53770;42.334;23.550;2022-09-09T01:03:26;11.57;;;5.80;;
66860;SDS011;53770;42.334;23.550;2022-09-09T01:06:11;14.38;;;5.97;;
66860;SDS011;53770;42.334;23.550;2022-09-09T01:08:53;9.55;;;5.50;;
66860;SDS011;53770;42.334;23.550;2022-09-09T01:11:37;10.85;;;4.70;;
66860;SDS011;53770;42.334;23.550;2022-09-09T01:14:19;8.65;;;4.70;;
66860;SDS011;53770;42.334;23.550;2022-09-09T01:16:58;7.97;;;4.07;;
66860;SDS011;53770;42.334;23.550;2022-09-09T01:19:33;15.82;;;4.40;;
66860;SDS011;53770;42.334;23.550;2022-09-09T01:22:19;10.95;;;5.22;;
66860;SDS011;53770;42.334;23.550;2022-09-09T01:25:01;10.23;;;6.25;;
66860;SDS011;53770;42.334;23.550;2022-09-09T01:27:46;9.73;;;4.80;;
66860;SDS011;53770;42.334;23.550;2022-09-09T01:30:14;13.80;;;4.33;;
66860;SDS011;53770;42.334;23.550;2022-09-09T01:32:43;10.73;;;4.32;;
66860;SDS011;53770;42.334;23.550;2022-09-09T01:35:12;12.65;;;4.65;;
66860;SDS011;53770;42.334;23.550;2022-09-09T01:37:49;10.77;;;5.60;;
66860;SDS011;53770;42.334;23.550;2022-09-09T01:40:15;11.55;;;5.30;;
66860;SDS011;53770;42.334;23.550;2022-09-09T01:42:42;9.17;;;5.03;;
66860;SDS011;53770;42.334;23.550;2022-09-09T01:45:10;11.20;;;4.70;;
66860;SDS011;53770;42.334;23.550;2022-09-09T01:47:37;12.65;;;5.60;;
66860;SDS011;53770;42.334;23.550;2022-09-09T01:50:04;11.32;;;5.18;;
66860;SDS011;53770;42.334;23.550;2022-09-09T01:52:34;9.60;;;6.43;;
66860;SDS011;53770;42.334;23.550;2022-09-09T01:55:02;12.43;;;5.97;;
66860;SDS011;53770;42.334;23.550;2022-09-09T01:57:30;11.25;;;5.70;;
66860;SDS011;53770;42.334;23.550;2022-09-09T02:00:06;10.00;;;4.93;;
66860;SDS011;53770;42.334;23.550;2022-09-09T02:02:38;12.82;;;5.13;;
66860;SDS011;53770;42.334;23.550;2022-09-09T02:05:26;8.40;;;4.47;;
66860;SDS011;53770;42.334;23.550;2022-09-09T02:07:58;9.40;;;4.17;;
66860;SDS011;53770;42.334;23.550;2022-09-09T02:10:32;7.75;;;3.92;;
66860;SDS011;53770;42.334;23.550;2022-09-09T02:13:07;7.43;;;3.55;;
66860;SDS011;53770;42.334;23.550;2022-09-09T02:15:38;8.82;;;4.60;;
66860;SDS011;53770;42.334;23.550;2022-09-09T02:18:10;13.15;;;5.38;;
66860;SDS011;53770;42.334;23.550;2022-09-09T02:20:40;11.43;;;6.50;;
66860;SDS011;53770;42.334;23.550;2022-09-09T02:23:09;11.00;;;7.00;;
66860;SDS011;53770;42.334;23.550;2022-09-09T02:25:38;12.07;;;7.35;;
66860;SDS011;53770;42.334;23.550;2022-09-09T02:28:07;14.10;;;7.82;;
66860;SDS011;53770;42.334;23.550;2022-09-09T02:30:35;12.90;;;8.13;;
66860;SDS011;53770;42.334;23.550;2022-09-09T02:33:04;12.93;;;8.13;;
66860;SDS011;53770;42.334;23.550;2022-09-09T02:35:36;11.98;;;7.85;;
66860;SDS011;53770;42.334;23.550;2022-09-09T02:38:06;16.00;;;7.95;;
66860;SDS011;53770;42.334;23.550;2022-09-09T02:40:36;13.27;;;8.10;;
66860;SDS011;53770;42.334;23.550;2022-09-09T02:43:03;13.07;;;7.93;;
66860;SDS011;53770;42.334;23.550;2022-09-09T02:45:32;12.47;;;7.63;;
66860;SDS011;53770;42.334;23.550;2022-09-09T02:48:09;12.40;;;6.97;;
66860;SDS011;53770;42.334;23.550;2022-09-09T02:50:43;10.75;;;6.65;;
66860;SDS011;53770;42.334;23.550;2022-09-09T02:53:19;14.00;;;7.72;;
66860;SDS011;53770;42.334;23.550;2022-09-09T02:55:50;14.02;;;7.22;;
66860;SDS011;53770;42.334;23.550;2022-09-09T02:58:20;14.47;;;6.07;;
66860;SDS011;53770;42.334;23.550;2022-09-09T03:00:49;10.65;;;5.32;;
66860;SDS011;53770;42.334;23.550;2022-09-09T03:03:17;10.77;;;5.30;;
66860;SDS011;53770;42.334;23.550;2022-09-09T03:05:46;9.18;;;4.57;;
66860;SDS011;53770;42.334;23.550;2022-09-09T03:08:13;12.45;;;4.60;;
66860;SDS011;53770;42.334;23.550;2022-09-09T03:10:40;16.13;;;5.00;;
66860;SDS011;53770;42.334;23.550;2022-09-09T03:13:07;9.40;;;4.30;;
66860;SDS011;53770;42.334;23.550;2022-09-09T03:15:33;12.02;;;4.65;;
66860;SDS011;53770;42.334;23.550;2022-09-09T03:18:01;11.60;;;4.68;;
66860;SDS011;53770;42.334;23.550;2022-09-09T03:20:28;12.10;;;4.65;;
66860;SDS011;53770;42.334;23.550;2022-09-09T03:22:58;9.43;;;4.30;;
66860;SDS011;53770;42.334;23.550;2022-09-09T03:25:26;12.43;;;4.28;;
66860;SDS011;53770;42.334;23.550;2022-09-09T03:27:53;14.43;;;4.35;;
66860;SDS011;53770;42.334;23.550;2022-09-09T03:30:21;10.18;;;4.43;;
66860;SDS011;53770;42.334;23.550;2022-09-09T03:32:47;12.85;;;4.20;;
66860;SDS011;53770;42.334;23.550;2022-09-09T03:35:14;8.70;;;4.07;;
66860;SDS011;53770;42.334;23.550;2022-09-09T03:37:42;11.13;;;4.97;;
66860;SDS011;53770;42.334;23.550;2022-09-09T03:40:10;9.88;;;4.20;;
66860;SDS011;53770;42.334;23.550;2022-09-09T03:42:37;11.40;;;4.43;;
66860;SDS011;53770;42.334;23.550;2022-09-09T03:45:06;8.48;;;4.22;;
66860;SDS011;53770;42.334;23.550;2022-09-09T03:47:34;9.83;;;3.80;;
66860;SDS011;53770;42.334;23.550;2022-09-09T03:50:01;9.68;;;3.92;;
66860;SDS011;53770;42.334;23.550;2022-09-09T03:52:29;8.38;;;4.20;;
66860;SDS011;53770;42.334;23.550;2022-09-09T03:54:56;9.73;;;4.68;;
66860;SDS011;53770;42.334;23.550;2022-09-09T03:57:24;14.85;;;7.22;;
66860;SDS011;53770;42.334;23.550;2022-09-09T03:59:50;12.93;;;7.80;;
66860;SDS011;53770;42.334;23.550;2022-09-09T04:02:17;23.52;;;8.38;;
66860;SDS011;53770;42.334;23.550;2022-09-09T04:04:44;16.88;;;8.05;;
66860;SDS011;53770;42.334;23.550;2022-09-09T04:07:11;21.42;;;9.05;;
66860;SDS011;53770;42.334;23.550;2022-09-09T04:09:37;17.30;;;9.05;;
66860;SDS011;53770;42.334;23.550;2022-09-09T04:12:04;15.13;;;7.70;;
66860;SDS011;53770;42.334;23.550;2022-09-09T04:14:33;13.85;;;8.35;;
66860;SDS011;53770;42.334;23.550;2022-09-09T04:16:59;14.65;;;7.72;;
66860;SDS011;53770;42.334;23.550;2022-09-09T04:19:29;13.68;;;7.78;;
66860;SDS011;53770;42.334;23.550;2022-09-09T04:21:56;14.55;;;8.00;;
66860;SDS011;53770;42.334;23.550;2022-09-09T04:24:23;14.00;;;8.40;;
66860;SDS011;53770;42.334;23.550;2022-09-09T04:26:52;10.57;;;6.55;;
66860;SDS011;53770;42.334;23.550;2022-09-09T04:29:19;12.27;;;5.68;;
66860;SDS011;53770;42.334;23.550;2022-09-09T04:31:47;18.02;;;5.93;;
66860;SDS011;53770;42.334;23.550;2022-09-09T04:34:14;9.93;;;5.80;;
66860;SDS011;53770;42.334;23.550;2022-09-09T04:36:40;8.77;;;5.10;;
66860;SDS011;53770;42.334;23.550;2022-09-09T04:39:07;10.75;;;3.97;;
66860;SDS011;53770;42.334;23.550;2022-09-09T04:41:34;15.35;;;4.85;;
66860;SDS011;53770;42.334;23.550;2022-09-09T04:44:02;10.25;;;4.30;;
66860;SDS011;53770;42.334;23.550;2022-09-09T04:46:29;10.32;;;4.03;;
66860;SDS011;53770;42.334;23.550;2022-09-09T04:48:57;10.37;;;4.80;;
66860;SDS011;53770;42.334;23.550;2022-09-09T04:51:24;8.77;;;4.43;;
66860;SDS011;53770;42.334;23.550;2022-09-09T04:53:51;8.85;;;3.92;;
66860;SDS011;53770;42.334;23.550;2022-09-09T04:56:19;11.18;;;4.43;;
66860;SDS011;53770;42.334;23.550;2022-09-09T04:58:45;9.93;;;4.03;;
66860;SDS011;53770;42.334;23.550;2022-09-09T05:01:13;9.67;;;4.07;;
66860;SDS011;53770;42.334;23.550;2022-09-09T05:03:41;8.63;;;4.30;;
66860;SDS011;53770;42.334;23.550;2022-09-09T05:06:09;13.73;;;4.32;;
66860;SDS011;53770;42.334;23.550;2022-09-09T05:08:37;7.25;;;3.97;;
66860;SDS011;53770;42.334;23.550;2022-09-09T05:11:12;10.32;;;4.60;;
66860;SDS011;53770;42.334;23.550;2022-09-09T05:13:40;12.20;;;3.60;;
66860;SDS011;53770;42.334;23.550;2022-09-09T05:16:07;8.93;;;3.67;;
66860;SDS011;53770;42.334;23.550;2022-09-09T05:18:35;12.50;;;3.88;;
66860;SDS011;53770;42.334;23.550;2022-09-09T05:21:02;11.05;;;3.88;;
66860;SDS011;53770;42.334;23.550;2022-09-09T05:23:30;8.23;;;3.47;;
66860;SDS011;53770;42.334;23.550;2022-09-09T05:25:59;10.03;;;4.00;;
66860;SDS011;53770;42.334;23.550;2022-09-09T05:28:26;9.48;;;4.50;;
66860;SDS011;53770;42.334;23.550;2022-09-09T05:30:57;9.35;;;4.72;;
66860;SDS011;53770;42.334;23.550;2022-09-09T05:33:25;11.80;;;3.95;;
66860;SDS011;53770;42.334;23.550;2022-09-09T05:35:56;9.23;;;3.85;;
66860;SDS011;53770;42.334;23.550;2022-09-09T05:38:23;12.13;;;4.10;;
66860;SDS011;53770;42.334;23.550;2022-09-09T05:40:52;10.80;;;4.18;;
66860;SDS011;53770;42.334;23.550;2022-09-09T05:43:20;8.32;;;3.88;;
66860;SDS011;53770;42.334;23.550;2022-09-09T05:45:47;11.57;;;5.55;;
66860;SDS011;53770;42.334;23.550;2022-09-09T05:48:15;9.77;;;4.82;;
66860;SDS011;53770;42.334;23.550;2022-09-09T05:50:42;17.20;;;4.43;;
66860;SDS011;53770;42.334;23.550;2022-09-09T05:53:10;11.00;;;4.25;;
66860;SDS011;53770;42.334;23.550;2022-09-09T05:55:37;10.63;;;4.15;;
66860;SDS011;53770;42.334;23.550;2022-09-09T05:58:05;9.48;;;4.13;;
66860;SDS011;53770;42.334;23.550;2022-09-09T06:00:31;14.52;;;4.72;;
66860;SDS011;53770;42.334;23.550;2022-09-09T06:02:58;10.37;;;4.07;;
66860;SDS011;53770;42.334;23.550;2022-09-09T06:05:25;10.88;;;4.00;;
66860;SDS011;53770;42.334;23.550;2022-09-09T06:07:53;8.85;;;4.40;;
66860;SDS011;53770;42.334;23.550;2022-09-09T06:10:20;9.98;;;4.45;;
66860;SDS011;53770;42.334;23.550;2022-09-09T06:12:47;9.88;;;4.40;;
66860;SDS011;53770;42.334;23.550;2022-09-09T06:15:15;11.57;;;4.90;;
66860;SDS011;53770;42.334;23.550;2022-09-09T06:17:42;11.90;;;5.20;;
66860;SDS011;53770;42.334;23.550;2022-09-09T06:20:10;13.70;;;5.35;;
66860;SDS011;53770;42.334;23.550;2022-09-09T06:22:38;13.25;;;5.25;;
66860;SDS011;53770;42.334;23.550;2022-09-09T06:25:06;14.32;;;5.78;;
66860;SDS011;53770;42.334;23.550;2022-09-09T06:27:34;11.77;;;5.30;;
66860;SDS011;53770;42.334;23.550;2022-09-09T06:30:00;9.95;;;5.60;;
66860;SDS011;53770;42.334;23.550;2022-09-09T06:32:29;13.10;;;6.25;;
66860;SDS011;53770;42.334;23.550;2022-09-09T06:34:59;23.65;;;11.02;;
66860;SDS011;53770;42.334;23.550;2022-09-09T06:37:27;13.20;;;7.00;;
66860;SDS011;53770;42.334;23.550;2022-09-09T06:39:54;13.30;;;8.33;;
66860;SDS011;53770;42.334;23.550;2022-09-09T06:42:21;11.20;;;5.78;;
66860;SDS011;53770;42.334;23.550;2022-09-09T06:44:48;10.43;;;5.13;;
66860;SDS011;53770;42.334;23.550;2022-09-09T06:47:14;12.30;;;6.10;;
66860;SDS011;53770;42.334;23.550;2022-09-09T06:49:42;8.98;;;5.18;;
66860;SDS011;53770;42.334;23.550;2022-09-09T06:52:09;9.23;;;5.30;;
66860;SDS011;53770;42.334;23.550;2022-09-09T06:54:36;10.32;;;5.90;;
66860;SDS011;53770;42.334;23.550;2022-09-09T06:57:03;11.73;;;6.43;;
66860;SDS011;53770;42.334;23.550;2022-09-09T06:59:32;10.70;;;5.75;;
66860;SDS011;53770;42.334;23.550;2022-09-09T07:01:58;15.65;;;10.05;;
66860;SDS011;53770;42.334;23.550;2022-09-09T07:04:26;17.90;;;7.10;;
66860;SDS011;53770;42.334;23.550;2022-09-09T07:06:54;12.23;;;5.57;;
66860;SDS011;53770;42.334;23.550;2022-09-09T07:09:21;10.35;;;5.30;;
66860;SDS011;53770;42.334;23.550;2022-09-09T07:11:49;9.23;;;5.28;;
66860;SDS011;53770;42.334;23.550;2022-09-09T07:14:17;8.73;;;5.43;;
66860;SDS011;53770;42.334;23.550;2022-09-09T07:16:45;10.00;;;5.40;;
66860;SDS011;53770;42.334;23.550;2022-09-09T07:19:12;12.32;;;5.90;;
66860;SDS011;53770;42.334;23.550;2022-09-09T07:21:40;9.43;;;5.60;;
66860;SDS011;53770;42.334;23.550;2022-09-09T07:24:08;8.35;;;5.13;;
66860;SDS011;53770;42.334;23.550;2022-09-09T07:26:36;7.07;;;4.78;;
66860;SDS011;53770;42.334;23.550;2022-09-09T07:29:03;11.30;;;5.20;;
66860;SDS011;53770;42.334;23.550;2022-09-09T07:31:30;8.95;;;4.50;;
66860;SDS011;53770;42.334;23.550;2022-09-09T07:33:59;9.55;;;5.93;;
66860;SDS011;53770;42.334;23.550;2022-09-09T07:36:27;8.70;;;5.03;;
66860;SDS011;53770;42.334;23.550;2022-09-09T07:38:56;11.35;;;4.50;;
66860;SDS011;53770;42.334;23.550;2022-09-09T07:41:25;9.20;;;5.20;;
66860;SDS011;53770;42.334;23.550;2022-09-09T07:43:53;7.15;;;4.47;;
66860;SDS011;53770;42.334;23.550;2022-09-09T07:46:21;7.05;;;4.63;;
66860;SDS011;53770;42.334;23.550;2022-09-09T07:48:50;7.03;;;4.35;;
66860;SDS011;53770;42.334;23.550;2022-09-09T07:51:19;6.93;;;4.20;;
66860;SDS011;53770;42.334;23.550;2022-09-09T07:53:47;9.47;;;4.80;;
66860;SDS011;53770;42.334;23.550;2022-09-09T07:56:16;7.55;;;4.40;;
66860;SDS011;53770;42.334;23.550;2022-09-09T07:58:45;11.75;;;4.80;;
66860;SDS011;53770;42.334;23.550;2022-09-09T08:01:13;8.40;;;4.35;;
66860;SDS011;53770;42.334;23.550;2022-09-09T08:03:42;9.65;;;4.63;;
66860;SDS011;53770;42.334;23.550;2022-09-09T08:06:09;16.97;;;11.20;;
66860;SDS011;53770;42.334;23.550;2022-09-09T08:08:37;7.40;;;5.50;;
66860;SDS011;53770;42.334;23.550;2022-09-09T08:11:08;14.43;;;7.90;;
66860;SDS011;53770;42.334;23.550;2022-09-09T08:13:36;13.45;;;6.55;;
66860;SDS011;53770;42.334;23.550;2022-09-09T08:16:07;10.73;;;5.13;;
66860;SDS011;53770;42.334;23.550;2022-09-09T08:18:34;7.83;;;4.30;;
66860;SDS011;53770;42.334;23.550;2022-09-09T08:21:09;8.93;;;5.68;;
66860;SDS011;53770;42.334;23.550;2022-09-09T08:23:38;9.15;;;5.03;;
66860;SDS011;53770;42.334;23.550;2022-09-09T08:26:06;8.00;;;4.80;;
66860;SDS011;53770;42.334;23.550;2022-09-09T08:28:35;9.13;;;5.28;;
66860;SDS011;53770;42.334;23.550;2022-09-09T08:31:07;7.40;;;5.00;;
66860;SDS011;53770;42.334;23.550;2022-09-09T08:33:35;7.80;;;4.65;;
66860;SDS011;53770;42.334;23.550;2022-09-09T08:36:03;7.57;;;5.15;;
66860;SDS011;53770;42.334;23.550;2022-09-09T08:38:31;8.93;;;4.10;;
66860;SDS011;53770;42.334;23.550;2022-09-09T08:41:00;10.73;;;5.20;;
66860;SDS011;53770;42.334;23.550;2022-09-09T08:43:37;9.60;;;5.10;;
66860;SDS011;53770;42.334;23.550;2022-09-09T08:46:05;9.18;;;4.63;;
66860;SDS011;53770;42.334;23.550;2022-09-09T08:48:43;19.30;;;6.50;;
66860;SDS011;53770;42.334;23.550;2022-09-09T08:51:17;10.82;;;7.13;;
66860;SDS011;53770;42.334;23.550;2022-09-09T08:53:46;6.30;;;4.57;;
66860;SDS011;53770;42.334;23.550;2022-09-09T08:56:16;8.57;;;4.67;;
66860;SDS011;53770;42.334;23.550;2022-09-09T08:58:47;10.25;;;4.47;;
66860;SDS011;53770;42.334;23.550;2022-09-09T09:01:24;8.48;;;4.40;;
66860;SDS011;53770;42.334;23.550;2022-09-09T09:04:11;10.23;;;4.80;;
66860;SDS011;53770;42.334;23.550;2022-09-09T09:06:50;7.35;;;4.00;;
66860;SDS011;53770;42.334;23.550;2022-09-09T09:09:27;8.50;;;3.80;;
66860;SDS011;53770;42.334;23.550;2022-09-09T09:11:59;6.07;;;3.50;;
66860;SDS011;53770;42.334;23.550;2022-09-09T09:14:28;7.20;;;4.10;;
66860;SDS011;53770;42.334;23.550;2022-09-09T09:17:00;8.77;;;3.90;;
66860;SDS011;53770;42.334;23.550;2022-09-09T09:19:31;6.38;;;4.05;;
66860;SDS011;53770;42.334;23.550;2022-09-09T09:22:01;6.37;;;4.07;;
66860;SDS011;53770;42.334;23.550;2022-09-09T09:24:34;7.68;;;5.45;;
66860;SDS011;53770;42.334;23.550;2022-09-09T09:27:12;7.68;;;4.50;;
66860;SDS011;53770;42.334;23.550;2022-09-09T09:29:39;10.88;;;4.45;;
66860;SDS011;53770;42.334;23.550;2022-09-09T09:32:11;7.25;;;5.03;;
66860;SDS011;53770;42.334;23.550;2022-09-09T09:34:42;6.87;;;3.90;;
66860;SDS011;53770;42.334;23.550;2022-09-09T09:37:15;6.05;;;4.32;;
66860;SDS011;53770;42.334;23.550;2022-09-09T09:39:44;7.47;;;3.92;;
66860;SDS011;53770;42.334;23.550;2022-09-09T09:42:12;9.43;;;5.70;;
66860;SDS011;53770;42.334;23.550;2022-09-09T09:44:42;6.53;;;5.07;;
66860;SDS011;53770;42.334;23.550;2022-09-09T09:47:13;8.33;;;4.40;;
66860;SDS011;53770;42.334;23.550;2022-09-09T09:49:50;14.32;;;4.60;;
66860;SDS011;53770;42.334;23.550;2022-09-09T09:52:20;12.25;;;4.90;;
66860;SDS011;53770;42.334;23.550;2022-09-09T09:54:48;6.97;;;5.25;;
66860;SDS011;53770;42.334;23.550;2022-09-09T09:57:16;7.75;;;6.25;;
66860;SDS011;53770;42.334;23.550;2022-09-09T09:59:44;8.73;;;5.23;;
66860;SDS011;53770;42.334;23.550;2022-09-09T10:02:17;7.53;;;4.60;;
66860;SDS011;53770;42.334;23.550;2022-09-09T10:04:46;7.40;;;5.25;;
66860;SDS011;53770;42.334;23.550;2022-09-09T10:07:17;6.13;;;4.97;;
66860;SDS011;53770;42.334;23.550;2022-09-09T10:09:44;6.72;;;4.80;;
66860;SDS011;53770;42.334;23.550;2022-09-09T10:12:16;8.77;;;4.77;;
66860;SDS011;53770;42.334;23.550;2022-09-09T10:14:52;9.55;;;4.32;;
66860;SDS011;53770;42.334;23.550;2022-09-09T10:17:27;6.88;;;4.13;;
66860;SDS011;53770;42.334;23.550;2022-09-09T10:20:04;8.02;;;4.40;;
66860;SDS011;53770;42.334;23.550;2022-09-09T10:22:46;8.50;;;5.90;;
66860;SDS011;53770;42.334;23.550;2022-09-09T10:25:28;11.27;;;6.37;;
66860;SDS011;53770;42.334;23.550;2022-09-09T10:31:00;10.82;;;6.25;;
66860;SDS011;53770;42.334;23.550;2022-09-09T10:33:37;11.02;;;5.10;;
66860;SDS011;53770;42.334;23.550;2022-09-09T10:36:13;9.82;;;7.22;;
66860;SDS011;53770;42.334;23.550;2022-09-09T10:38:45;8.67;;;6.37;;
66860;SDS011;53770;42.334;23.550;2022-09-09T10:41:15;7.20;;;5.00;;
66860;SDS011;53770;42.334;23.550;2022-09-09T10:43:59;11.07;;;5.07;;
66860;SDS011;53770;42.334;23.550;2022-09-09T10:46:38;8.00;;;4.90;;
66860;SDS011;53770;42.334;23.550;2022-09-09T10:49:16;11.40;;;4.38;;
66860;SDS011;53770;42.334;23.550;2022-09-09T10:51:52;7.27;;;3.97;;
66860;SDS011;53770;42.334;23.550;2022-09-09T10:54:31;8.40;;;4.60;;
66860;SDS011;53770;42.334;23.550;2022-09-09T10:57:16;8.30;;;4.32;;
66860;SDS011;53770;42.334;23.550;2022-09-09T10:59:50;8.60;;;3.65;;
66860;SDS011;53770;42.334;23.550;2022-09-09T11:02:24;10.95;;;4.18;;
66860;SDS011;53770;42.334;23.550;2022-09-09T11:04:56;11.40;;;4.20;;
66860;SDS011;53770;42.334;23.550;2022-09-09T11:07:26;9.88;;;4.20;;
66860;SDS011;53770;42.334;23.550;2022-09-09T11:09:59;9.82;;;4.03;;
66860;SDS011;53770;42.334;23.550;2022-09-09T11:12:31;8.02;;;4.30;;
66860;SDS011;53770;42.334;23.550;2022-09-09T11:15:04;9.98;;;4.45;;
66860;SDS011;53770;42.334;23.550;2022-09-09T11:17:36;7.20;;;4.07;;
66860;SDS011;53770;42.334;23.550;2022-09-09T11:20:12;14.25;;;4.70;;
66860;SDS011;53770;42.334;23.550;2022-09-09T11:22:42;9.05;;;3.72;;
66860;SDS011;53770;42.334;23.550;2022-09-09T11:25:15;9.82;;;4.35;;
66860;SDS011;53770;42.334;23.550;2022-09-09T11:27:45;10.50;;;4.50;;
66860;SDS011;53770;42.334;23.550;2022-09-09T11:30:27;7.97;;;4.67;;
66860;SDS011;53770;42.334;23.550;2022-09-09T11:33:09;10.13;;;5.38;;
66860;SDS011;53770;42.334;23.550;2022-09-09T11:36:00;11.43;;;5.18;;
66860;SDS011;53770;42.334;23.550;2022-09-09T11:38:44;8.50;;;5.30;;
66860;SDS011;53770;42.334;23.550;2022-09-09T11:41:12;7.88;;;5.07;;
66860;SDS011;53770;42.334;23.550;2022-09-09T11:43:42;8.87;;;5.50;;
66860;SDS011;53770;42.334;23.550;2022-09-09T11:46:10;8.55;;;5.90;;
66860;SDS011;53770;42.334;23.550;2022-09-09T11:48:39;10.52;;;6.03;;
66860;SDS011;53770;42.334;23.550;2022-09-09T11:51:11;9.55;;;5.55;;
66860;SDS011;53770;42.334;23.550;2022-09-09T11:53:48;12.32;;;6.03;;
66860;SDS011;53770;42.334;23.550;2022-09-09T11:56:26;9.77;;;6.13;;
66860;SDS011;53770;42.334;23.550;2022-09-09T11:59:02;14.77;;;5.72;;
66860;SDS011;53770;42.334;23.550;2022-09-09T12:01:37;13.23;;;5.78;;
66860;SDS011;53770;42.334;23.550;2022-09-09T12:06:58;16.95;;;7.47;;
66860;SDS011;53770;42.334;23.550;2022-09-09T12:09:32;11.53;;;5.23;;
66860;SDS011;53770;42.334;23.550;2022-09-09T12:12:07;7.30;;;5.63;;
66860;SDS011;53770;42.334;23.550;2022-09-09T12:15:17;7.03;;;5.18;;
66860;SDS011;53770;42.334;23.550;2022-09-09T12:17:54;8.57;;;5.18;;
66860;SDS011;53770;42.334;23.550;2022-09-09T12:20:23;8.25;;;5.38;;
66860;SDS011;53770;42.334;23.550;2022-09-09T12:26:04;6.55;;;4.93;;
66860;SDS011;53770;42.334;23.550;2022-09-09T12:28:51;10.55;;;5.07;;
66860;SDS011;53770;42.334;23.550;2022-09-09T12:31:25;7.57;;;4.82;;
66860;SDS011;53770;42.334;23.550;2022-09-09T12:34:02;10.52;;;5.35;;
66860;SDS011;53770;42.334;23.550;2022-09-09T12:36:36;10.60;;;5.43;;
66860;SDS011;53770;42.334;23.550;2022-09-09T12:39:14;8.77;;;5.53;;
66860;SDS011;53770;42.334;23.550;2022-09-09T12:41:50;8.20;;;5.82;;
66860;SDS011;53770;42.334;23.550;2022-09-09T12:44:22;11.45;;;5.45;;
66860;SDS011;53770;42.334;23.550;2022-09-09T12:46:50;9.30;;;5.45;;
66860;SDS011;53770;42.334;23.550;2022-09-09T12:52:07;9.93;;;5.45;;
66860;SDS011;53770;42.334;23.550;2022-09-09T12:54:43;9.82;;;6.05;;
66860;SDS011;53770;42.334;23.550;2022-09-09T12:57:12;9.93;;;6.13;;
66860;SDS011;53770;42.334;23.550;2022-09-09T12:59:40;9.63;;;5.40;;
66860;SDS011;53770;42.334;23.550;2022-09-09T13:02:11;7.80;;;5.07;;
66860;SDS011;53770;42.334;23.550;2022-09-09T13:04:45;14.45;;;5.55;;
66860;SDS011;53770;42.334;23.550;2022-09-09T13:07:12;8.80;;;5.53;;
66860;SDS011;53770;42.334;23.550;2022-09-09T13:09:42;10.88;;;5.50;;
66860;SDS011;53770;42.334;23.550;2022-09-09T13:12:12;11.18;;;5.68;;
66860;SDS011;53770;42.334;23.550;2022-09-09T13:14:42;10.73;;;5.57;;
66860;SDS011;53770;42.334;23.550;2022-09-09T13:17:15;9.82;;;6.00;;
66860;SDS011;53770;42.334;23.550;2022-09-09T13:19:46;11.65;;;5.80;;
66860;SDS011;53770;42.334;23.550;2022-09-09T13:22:19;8.43;;;5.85;;
66860;SDS011;53770;42.334;23.550;2022-09-09T13:24:57;13.90;;;6.57;;
66860;SDS011;53770;42.334;23.550;2022-09-09T13:27:28;11.37;;;5.80;;
66860;SDS011;53770;42.334;23.550;2022-09-09T13:29:57;8.55;;;5.78;;
66860;SDS011;53770;42.334;23.550;2022-09-09T13:32:24;10.07;;;6.40;;
66860;SDS011;53770;42.334;23.550;2022-09-09T13:34:53;13.40;;;6.35;;
66860;SDS011;53770;42.334;23.550;2022-09-09T13:37:22;12.38;;;6.50;;
66860;SDS011;53770;42.334;23.550;2022-09-09T13:39:54;11.87;;;6.23;;
66860;SDS011;53770;42.334;23.550;2022-09-09T13:42:22;12.10;;;6.20;;
66860;SDS011;53770;42.334;23.550;2022-09-09T13:44:51;10.95;;;6.45;;
66860;SDS011;53770;42.334;23.550;2022-09-09T13:47:19;16.02;;;6.65;;
66860;SDS011;53770;42.334;23.550;2022-09-09T13:49:48;13.30;;;6.97;;
66860;SDS011;53770;42.334;23.550;2022-09-09T13:52:15;10.83;;;6.60;;
66860;SDS011;53770;42.334;23.550;2022-09-09T13:54:46;12.27;;;6.93;;
66860;SDS011;53770;42.334;23.550;2022-09-09T13:57:16;9.10;;;6.07;;
66860;SDS011;53770;42.334;23.550;2022-09-09T13:59:43;9.98;;;6.35;;
66860;SDS011;53770;42.334;23.550;2022-09-09T14:02:10;13.63;;;6.88;;
66860;SDS011;53770;42.334;23.550;2022-09-09T14:04:37;14.93;;;6.90;;
66860;SDS011;53770;42.334;23.550;2022-09-09T14:07:07;9.88;;;6.22;;
66860;SDS011;53770;42.334;23.550;2022-09-09T14:09:37;10.25;;;6.40;;
66860;SDS011;53770;42.334;23.550;2022-09-09T14:12:04;10.85;;;6.35;;
66860;SDS011;53770;42.334;23.550;2022-09-09T14:14:32;13.25;;;6.70;;
66860;SDS011;53770;42.334;23.550;2022-09-09T14:16:59;11.90;;;6.57;;
66860;SDS011;53770;42.334;23.550;2022-09-09T14:19:26;9.73;;;6.90;;
66860;SDS011;53770;42.334;23.550;2022-09-09T14:21:53;10.90;;;6.00;;
66860;SDS011;53770;42.334;23.550;2022-09-09T14:24:19;10.35;;;6.50;;
66860;SDS011;53770;42.334;23.550;2022-09-09T14:26:46;12.68;;;6.50;;
66860;SDS011;53770;42.334;23.550;2022-09-09T14:29:13;13.63;;;7.10;;
66860;SDS011;53770;42.334;23.550;2022-09-09T14:31:41;12.90;;;7.43;;
66860;SDS011;53770;42.334;23.550;2022-09-09T14:34:08;11.48;;;7.47;;
66860;SDS011;53770;42.334;23.550;2022-09-09T14:36:35;11.50;;;6.97;;
66860;SDS011;53770;42.334;23.550;2022-09-09T14:39:02;13.20;;;6.47;;
66860;SDS011;53770;42.334;23.550;2022-09-09T14:41:29;12.57;;;7.13;;
66860;SDS011;53770;42.334;23.550;2022-09-09T14:43:56;10.70;;;6.60;;
66860;SDS011;53770;42.334;23.550;2022-09-09T14:46:22;13.38;;;6.88;;
66860;SDS011;53770;42.334;23.550;2022-09-09T14:48:50;11.85;;;7.07;;
66860;SDS011;53770;42.334;23.550;2022-09-09T14:51:18;11.00;;;7.35;;
66860;SDS011;53770;42.334;23.550;2022-09-09T14:53:47;12.50;;;6.87;;
66860;SDS011;53770;42.334;23.550;2022-09-09T14:56:15;16.60;;;7.72;;
66860;SDS011;53770;42.334;23.550;2022-09-09T14:58:43;13.55;;;7.22;;
66860;SDS011;53770;42.334;23.550;2022-09-09T15:01:12;11.80;;;7.95;;